Terminal Aerodrome Forecast
Issued by NWS Boston, MA

Home | Current Version | Previous Version | Text Only | Print | Product List | Glossary On
Versions: 1 2 3 4 5 6 7 8 9 10 11 12 13 14 15 16 17 18 19 20 21 22 23 24 25 26 27 28 29 30 31 32 33 34 35 36 37 38 39 40 41 42
000
FTUS41 KBOX 251733
TAFORH
TAF
KORH 251733Z 2518/2618 09007KT 3SM -RA BR OVC002
     FM252200 05005KT 1/2SM FG OVC003
     FM260000 02004KT 1/4SM FG OVC003
     FM261000 27006KT 3/4SM BR SCT003 BKN010
     FM261400 28008KT P6SM SCT130
     FM261600 28008G18KT P6SM SCT140=

USA.gov is the U.S. government's official web portal to all federal, state and local government web resources and services.